sensor_id;sensor_type;location;lat;lon;timestamp;pressure;altitude;pressure_sealevel;temperature;humidity
50133;BME280;46340;53.148;8.204;2022-09-09T00:02:01;100705.59;;;12.83;100.00
50133;BME280;46340;53.148;8.204;2022-09-09T00:04:37;100709.88;;;12.80;100.00
50133;BME280;46340;53.148;8.204;2022-09-09T00:09:49;100710.16;;;12.75;100.00
50133;BME280;46340;53.148;8.204;2022-09-09T00:15:20;100697.13;;;12.75;100.00
50133;BME280;46340;53.148;8.204;2022-09-09T00:25:54;100704.47;;;12.68;100.00
50133;BME280;46340;53.148;8.204;2022-09-09T00:28:29;100696.59;;;12.70;100.00
50133;BME280;46340;53.148;8.204;2022-09-09T00:31:11;100710.06;;;12.71;100.00
50133;BME280;46340;53.148;8.204;2022-09-09T00:33:51;100715.63;;;12.71;100.00
50133;BME280;46340;53.148;8.204;2022-09-09T00:36:20;100712.06;;;12.71;100.00
50133;BME280;46340;53.148;8.204;2022-09-09T00:38:49;100712.06;;;12.71;100.00
50133;BME280;46340;53.148;8.204;2022-09-09T00:47:04;100705.38;;;12.91;100.00
50133;BME280;46340;53.148;8.204;2022-09-09T00:52:43;100705.75;;;12.90;100.00
50133;BME280;46340;53.148;8.204;2022-09-09T00:55:20;100701.63;;;12.84;100.00
50133;BME280;46340;53.148;8.204;2022-09-09T00:57:53;100701.56;;;12.80;100.00
50133;BME280;46340;53.148;8.204;2022-09-09T01:05:27;100701.22;;;12.82;100.00
50133;BME280;46340;53.148;8.204;2022-09-09T01:08:01;100697.63;;;12.81;100.00
50133;BME280;46340;53.148;8.204;2022-09-09T01:10:31;100706.91;;;12.89;100.00
50133;BME280;46340;53.148;8.204;2022-09-09T01:13:16;100701.06;;;12.94;100.00
50133;BME280;46340;53.148;8.204;2022-09-09T01:15:48;100698.75;;;12.96;100.00
50133;BME280;46340;53.148;8.204;2022-09-09T01:18:16;100698.75;;;12.96;100.00
50133;BME280;46340;53.148;8.204;2022-09-09T01:24:04;100694.59;;;12.86;100.00
50133;BME280;46340;53.148;8.204;2022-09-09T01:26:41;100687.78;;;12.84;100.00
50133;BME280;46340;53.148;8.204;2022-09-09T01:29:09;100689.31;;;12.81;100.00
50133;BME280;46340;53.148;8.204;2022-09-09T01:31:41;100699.53;;;12.77;100.00
50133;BME280;46340;53.148;8.204;2022-09-09T01:34:16;100692.31;;;12.72;100.00
50133;BME280;46340;53.148;8.204;2022-09-09T01:37:03;100689.09;;;12.70;100.00
50133;BME280;46340;53.148;8.204;2022-09-09T01:39:30;100689.81;;;12.67;100.00
50133;BME280;46340;53.148;8.204;2022-09-09T01:41:58;100687.91;;;12.71;100.00
50133;BME280;46340;53.148;8.204;2022-09-09T01:44:24;100684.34;;;12.71;100.00
50133;BME280;46340;53.148;8.204;2022-09-09T01:46:50;100684.78;;;12.73;100.00
50133;BME280;46340;53.148;8.204;2022-09-09T01:49:16;100682.38;;;12.71;100.00
50133;BME280;46340;53.148;8.204;2022-09-09T01:51:42;100677.19;;;12.70;100.00
50133;BME280;46340;53.148;8.204;2022-09-09T01:54:09;100666.56;;;12.72;100.00
50133;BME280;46340;53.148;8.204;2022-09-09T02:02:30;100668.78;;;12.82;100.00
50133;BME280;46340;53.148;8.204;2022-09-09T02:05:10;100672.72;;;12.81;100.00
50133;BME280;46340;53.148;8.204;2022-09-09T02:07:46;100670.66;;;12.78;100.00
50133;BME280;46340;53.148;8.204;2022-09-09T02:10:20;100665.03;;;12.74;100.00
50133;BME280;46340;53.148;8.204;2022-09-09T02:12:55;100665.75;;;12.71;100.00
50133;BME280;46340;53.148;8.204;2022-09-09T02:18:30;100673.63;;;12.69;100.00
50133;BME280;46340;53.148;8.204;2022-09-09T02:21:05;100668.44;;;12.68;100.00
50133;BME280;46340;53.148;8.204;2022-09-09T02:23:32;100669.16;;;12.65;100.00
50133;BME280;46340;53.148;8.204;2022-09-09T02:25:59;100665.59;;;12.64;100.00
50133;BME280;46340;53.148;8.204;2022-09-09T02:28:27;100664.31;;;12.58;100.00
50133;BME280;46340;53.148;8.204;2022-09-09T02:30:57;100673.25;;;12.51;100.00
50133;BME280;46340;53.148;8.204;2022-09-09T02:33:24;100666.00;;;12.47;100.00
50133;BME280;46340;53.148;8.204;2022-09-09T02:35:53;100670.41;;;12.48;100.00
50133;BME280;46340;53.148;8.204;2022-09-09T02:38:26;100669.22;;;12.49;100.00
50133;BME280;46340;53.148;8.204;2022-09-09T02:40:57;100665.72;;;12.52;100.00
50133;BME280;46340;53.148;8.204;2022-09-09T02:43:23;100669.28;;;12.52;100.00
50133;BME280;46340;53.148;8.204;2022-09-09T02:48:20;100668.56;;;12.55;100.00
50133;BME280;46340;53.148;8.204;2022-09-09T02:50:54;100673.41;;;12.58;100.00
50133;BME280;46340;53.148;8.204;2022-09-09T02:56:40;100666.69;;;12.59;100.00
50133;BME280;46340;53.148;8.204;2022-09-09T02:59:10;100673.84;;;12.60;100.00
50133;BME280;46340;53.148;8.204;2022-09-09T03:01:36;100668.66;;;12.59;100.00
50133;BME280;46340;53.148;8.204;2022-09-09T03:04:02;100666.69;;;12.59;100.00
50133;BME280;46340;53.148;8.204;2022-09-09T03:06:30;100666.41;;;12.65;100.00
50133;BME280;46340;53.148;8.204;2022-09-09T03:08:55;100667.66;;;12.67;100.00
50133;BME280;46340;53.148;8.204;2022-09-09T03:11:22;100676.41;;;12.69;100.00
50133;BME280;46340;53.148;8.204;2022-09-09T03:13:48;100668.16;;;12.73;100.00
50133;BME280;46340;53.148;8.204;2022-09-09T03:16:14;100668.59;;;12.75;100.00
50133;BME280;46340;53.148;8.204;2022-09-09T03:18:40;100676.19;;;12.78;100.00
50133;BME280;46340;53.148;8.204;2022-09-09T03:21:05;100669.94;;;12.81;100.00
50133;BME280;46340;53.148;8.204;2022-09-09T03:23:31;100668.69;;;12.78;100.00
50133;BME280;46340;53.148;8.204;2022-09-09T03:25:57;100678.59;;;12.79;100.00
50133;BME280;46340;53.148;8.204;2022-09-09T03:28:23;100670.22;;;12.76;100.00
50133;BME280;46340;53.148;8.204;2022-09-09T03:30:57;100668.25;;;12.76;100.00
50133;BME280;46340;53.148;8.204;2022-09-09T03:33:23;100675.75;;;12.76;100.00
50133;BME280;46340;53.148;8.204;2022-09-09T03:35:48;100673.28;;;12.71;100.00
50133;BME280;46340;53.148;8.204;2022-09-09T03:38:14;100677.13;;;12.66;100.00
50133;BME280;46340;53.148;8.204;2022-09-09T03:40:39;100666.78;;;12.63;100.00
50133;BME280;46340;53.148;8.204;2022-09-09T03:43:04;100673.84;;;12.60;100.00
50133;BME280;46340;53.148;8.204;2022-09-09T03:45:30;100677.31;;;12.57;100.00
50133;BME280;46340;53.148;8.204;2022-09-09T03:47:55;100679.66;;;12.55;100.00
50133;BME280;46340;53.148;8.204;2022-09-09T03:50:22;100684.13;;;12.60;100.00
50133;BME280;46340;53.148;8.204;2022-09-09T03:52:48;100684.84;;;12.57;100.00
50133;BME280;46340;53.148;8.204;2022-09-09T03:55:13;100690.31;;;12.53;100.00
50133;BME280;46340;53.148;8.204;2022-09-09T03:57:39;100685.91;;;12.52;100.00
50133;BME280;46340;53.148;8.204;2022-09-09T04:00:05;100692.63;;;12.51;100.00
50133;BME280;46340;53.148;8.204;2022-09-09T04:02:32;100704.78;;;12.47;100.00
50133;BME280;46340;53.148;8.204;2022-09-09T04:04:57;100697.63;;;12.46;100.00
50133;BME280;46340;53.148;8.204;2022-09-09T04:07:23;100692.91;;;12.46;100.00
50133;BME280;46340;53.148;8.204;2022-09-09T04:09:48;100698.44;;;12.46;100.00
50133;BME280;46340;53.148;8.204;2022-09-09T04:12:13;100695.25;;;12.44;100.00
50133;BME280;46340;53.148;8.204;2022-09-09T04:14:39;100690.84;;;12.43;100.00
50133;BME280;46340;53.148;8.204;2022-09-09T04:17:04;100699.06;;;12.39;100.00
50133;BME280;46340;53.148;8.204;2022-09-09T04:19:31;100700.94;;;12.35;100.00
50133;BME280;46340;53.148;8.204;2022-09-09T04:21:57;100705.69;;;12.35;100.00
50133;BME280;46340;53.148;8.204;2022-09-09T04:24:22;100698.16;;;12.35;100.00
50133;BME280;46340;53.148;8.204;2022-09-09T04:26:47;100705.59;;;12.31;100.00
50133;BME280;46340;53.148;8.204;2022-09-09T04:29:13;100700.06;;;12.31;100.00
50133;BME280;46340;53.148;8.204;2022-09-09T04:31:38;100703.53;;;12.28;100.00
50133;BME280;46340;53.148;8.204;2022-09-09T04:34:06;100699.09;;;12.23;100.00
50133;BME280;46340;53.148;8.204;2022-09-09T04:36:32;100697.75;;;12.17;100.00
50133;BME280;46340;53.148;8.204;2022-09-09T04:38:58;100705.25;;;12.17;100.00
50133;BME280;46340;53.148;8.204;2022-09-09T04:41:23;100702.06;;;12.15;100.00
50133;BME280;46340;53.148;8.204;2022-09-09T04:43:49;100702.41;;;12.13;100.00
50133;BME280;46340;53.148;8.204;2022-09-09T04:46:14;100708.75;;;12.14;100.00
50133;BME280;46340;53.148;8.204;2022-09-09T04:48:42;100713.13;;;12.15;100.00
50133;BME280;46340;53.148;8.204;2022-09-09T04:51:08;100714.72;;;12.16;100.00
50133;BME280;46340;53.148;8.204;2022-09-09T04:53:36;100711.50;;;12.14;100.00
50133;BME280;46340;53.148;8.204;2022-09-09T04:56:07;100713.47;;;12.13;100.00
50133;BME280;46340;53.148;8.204;2022-09-09T04:58:35;100714.63;;;12.12;100.00
50133;BME280;46340;53.148;8.204;2022-09-09T05:03:33;100718.94;;;12.10;100.00
50133;BME280;46340;53.148;8.204;2022-09-09T05:06:02;100724.13;;;12.11;100.00
50133;BME280;46340;53.148;8.204;2022-09-09T05:08:29;100718.19;;;12.13;100.00
50133;BME280;46340;53.148;8.204;2022-09-09T05:10:54;100723.84;;;12.16;100.00
50133;BME280;46340;53.148;8.204;2022-09-09T05:13:20;100732.50;;;12.15;100.00
50133;BME280;46340;53.148;8.204;2022-09-09T05:15:51;100725.88;;;12.19;100.00
50133;BME280;46340;53.148;8.204;2022-09-09T05:18:17;100735.88;;;12.24;100.00
50133;BME280;46340;53.148;8.204;2022-09-09T05:20:43;100736.84;;;12.32;100.00
50133;BME280;46340;53.148;8.204;2022-09-09T05:23:08;100733.72;;;12.33;100.00
50133;BME280;46340;53.148;8.204;2022-09-09T05:25:35;100737.50;;;12.41;100.00
50133;BME280;46340;53.148;8.204;2022-09-09T05:28:00;100737.66;;;12.48;100.00
50133;BME280;46340;53.148;8.204;2022-09-09T05:30:26;100737.38;;;12.53;100.00
50133;BME280;46340;53.148;8.204;2022-09-09T05:32:51;100727.63;;;12.59;100.00
50133;BME280;46340;53.148;8.204;2022-09-09T05:35:16;100741.19;;;12.65;100.00
50133;BME280;46340;53.148;8.204;2022-09-09T05:37:44;100744.50;;;12.70;100.00
50133;BME280;46340;53.148;8.204;2022-09-09T05:40:10;100730.88;;;12.81;100.00
50133;BME280;46340;53.148;8.204;2022-09-09T05:42:37;100738.91;;;12.86;100.00
50133;BME280;46340;53.148;8.204;2022-09-09T05:45:04;100743.25;;;13.03;100.00
50133;BME280;46340;53.148;8.204;2022-09-09T05:47:29;100741.44;;;13.11;100.00
50133;BME280;46340;53.148;8.204;2022-09-09T05:49:55;100739.56;;;13.15;100.00
50133;BME280;46340;53.148;8.204;2022-09-09T05:52:20;100741.16;;;13.35;100.00
50133;BME280;46340;53.148;8.204;2022-09-09T05:54:45;100742.75;;;13.56;100.00
50133;BME280;46340;53.148;8.204;2022-09-09T05:57:11;100748.91;;;13.65;100.00
50133;BME280;46340;53.148;8.204;2022-09-09T05:59:36;100746.47;;;13.83;100.00
50133;BME280;46340;53.148;8.204;2022-09-09T06:02:01;100753.31;;;13.89;100.00
50133;BME280;46340;53.148;8.204;2022-09-09T06:04:26;100754.91;;;13.90;100.00
50133;BME280;46340;53.148;8.204;2022-09-09T06:06:52;100751.03;;;13.95;100.00
50133;BME280;46340;53.148;8.204;2022-09-09T06:09:17;100743.56;;;13.99;100.00
50133;BME280;46340;53.148;8.204;2022-09-09T06:11:42;100745.53;;;13.99;100.00
50133;BME280;46340;53.148;8.204;2022-09-09T06:14:08;100745.59;;;14.02;100.00
50133;BME280;46340;53.148;8.204;2022-09-09T06:16:34;100749.25;;;14.06;100.00
50133;BME280;46340;53.148;8.204;2022-09-09T06:19:00;100749.25;;;14.06;100.00
50133;BME280;46340;53.148;8.204;2022-09-09T06:21:27;100754.44;;;14.08;100.00
50133;BME280;46340;53.148;8.204;2022-09-09T06:23:55;100751.41;;;14.17;100.00
50133;BME280;46340;53.148;8.204;2022-09-09T06:26:34;100752.66;;;14.19;100.00
50133;BME280;46340;53.148;8.204;2022-09-09T06:29:01;100745.72;;;14.33;100.00
50133;BME280;46340;53.148;8.204;2022-09-09T06:31:32;100739.53;;;14.43;100.00
50133;BME280;46340;53.148;8.204;2022-09-09T06:33:59;100734.78;;;14.43;100.00
50133;BME280;46340;53.148;8.204;2022-09-09T06:36:26;100741.88;;;14.41;100.00
50133;BME280;46340;53.148;8.204;2022-09-09T06:39:02;100747.00;;;14.39;100.00
50133;BME280;46340;53.148;8.204;2022-09-09T06:41:28;100741.81;;;14.37;100.00
50133;BME280;46340;53.148;8.204;2022-09-09T06:43:55;100742.31;;;14.43;100.00
50133;BME280;46340;53.148;8.204;2022-09-09T06:46:24;100743.88;;;14.40;100.00
50133;BME280;46340;53.148;8.204;2022-09-09T06:48:55;100732.00;;;14.43;100.00
50133;BME280;46340;53.148;8.204;2022-09-09T06:51:22;100742.38;;;14.46;100.00
50133;BME280;46340;53.148;8.204;2022-09-09T06:53:53;100742.38;;;14.46;100.00
50133;BME280;46340;53.148;8.204;2022-09-09T06:56:27;100745.16;;;14.46;100.00
50133;BME280;46340;53.148;8.204;2022-09-09T06:59:02;100739.66;;;14.50;100.00
50133;BME280;46340;53.148;8.204;2022-09-09T07:01:31;100737.25;;;14.48;100.00
50133;BME280;46340;53.148;8.204;2022-09-09T07:03:58;100741.56;;;14.46;100.00
50133;BME280;46340;53.148;8.204;2022-09-09T07:06:25;100742.31;;;14.43;100.00
50133;BME280;46340;53.148;8.204;2022-09-09T07:08:53;100743.66;;;14.53;100.00
50133;BME280;46340;53.148;8.204;2022-09-09T07:11:21;100743.91;;;14.67;100.00
50133;BME280;46340;53.148;8.204;2022-09-09T07:13:47;100745.75;;;14.86;100.00
50133;BME280;46340;53.148;8.204;2022-09-09T07:16:17;100747.19;;;15.03;100.00
50133;BME280;46340;53.148;8.204;2022-09-09T07:18:44;100754.56;;;15.18;100.00
50133;BME280;46340;53.148;8.204;2022-09-09T07:21:10;100744.75;;;15.28;100.00
50133;BME280;46340;53.148;8.204;2022-09-09T07:23:37;100749.13;;;15.29;100.00
50133;BME280;46340;53.148;8.204;2022-09-09T07:26:06;100746.25;;;15.22;100.00
50133;BME280;46340;53.148;8.204;2022-09-09T07:28:33;100743.84;;;15.20;100.00
50133;BME280;46340;53.148;8.204;2022-09-09T07:30:59;100757.66;;;15.13;100.00
50133;BME280;46340;53.148;8.204;2022-09-09T07:33:27;100754.50;;;15.15;100.00
50133;BME280;46340;53.148;8.204;2022-09-09T07:36:01;100759.31;;;15.18;100.00
50133;BME280;46340;53.148;8.204;2022-09-09T07:38:37;100754.97;;;15.20;100.00
50133;BME280;46340;53.148;8.204;2022-09-09T07:41:07;100749.06;;;15.26;100.00
50133;BME280;46340;53.148;8.204;2022-09-09T07:43:40;100755.63;;;15.40;100.00
50133;BME280;46340;53.148;8.204;2022-09-09T07:46:07;100748.19;;;15.52;100.00
50133;BME280;46340;53.148;8.204;2022-09-09T07:48:34;100745.22;;;15.68;100.00
50133;BME280;46340;53.148;8.204;2022-09-09T07:51:04;100743.84;;;15.88;100.00
50133;BME280;46340;53.148;8.204;2022-09-09T07:53:36;100745.53;;;15.96;100.00
50133;BME280;46340;53.148;8.204;2022-09-09T07:56:07;100745.69;;;16.14;100.00
50133;BME280;46340;53.148;8.204;2022-09-09T07:58:37;100759.31;;;16.23;100.00
50133;BME280;46340;53.148;8.204;2022-09-09T08:01:14;100754.19;;;16.29;100.00
50133;BME280;46340;53.148;8.204;2022-09-09T08:03:55;100758.16;;;16.31;100.00
50133;BME280;46340;53.148;8.204;2022-09-09T08:06:26;100752.97;;;16.30;100.00
50133;BME280;46340;53.148;8.204;2022-09-09T08:08:53;100758.50;;;16.26;100.00
50133;BME280;46340;53.148;8.204;2022-09-09T08:11:19;100756.50;;;16.20;100.00
50133;BME280;46340;53.148;8.204;2022-09-09T08:13:47;100753.72;;;16.20;100.00
50133;BME280;46340;53.148;8.204;2022-09-09T08:16:16;100750.47;;;16.17;100.00
50133;BME280;46340;53.148;8.204;2022-09-09T08:18:43;100752.91;;;16.23;100.00
50133;BME280;46340;53.148;8.204;2022-09-09T08:23:40;100744.69;;;16.37;100.00
50133;BME280;46340;53.148;8.204;2022-09-09T08:26:16;100747.91;;;16.39;100.00
50133;BME280;46340;53.148;8.204;2022-09-09T08:28:47;100740.31;;;16.40;100.00
50133;BME280;46340;53.148;8.204;2022-09-09T08:31:16;100745.56;;;16.48;100.00
50133;BME280;46340;53.148;8.204;2022-09-09T08:33:44;100752.41;;;16.54;100.00
50133;BME280;46340;53.148;8.204;2022-09-09T08:36:16;100746.06;;;16.58;100.00
50133;BME280;46340;53.148;8.204;2022-09-09T08:38:46;100747.69;;;16.66;100.00
50133;BME280;46340;53.148;8.204;2022-09-09T08:41:29;100738.69;;;16.87;100.00
50133;BME280;46340;53.148;8.204;2022-09-09T08:46:42;100739.94;;;17.00;100.00
50133;BME280;46340;53.148;8.204;2022-09-09T08:49:58;100747.47;;;16.89;100.00
50133;BME280;46340;53.148;8.204;2022-09-09T08:52:06;100750.25;;;16.89;100.00
50133;BME280;46340;53.148;8.204;2022-09-09T08:54:40;100753.16;;;17.10;100.00
50133;BME280;46340;53.148;8.204;2022-09-09T08:57:07;100749.31;;;17.44;100.00
50133;BME280;46340;53.148;8.204;2022-09-09T08:59:39;100745.38;;;17.63;100.00
50133;BME280;46340;53.148;8.204;2022-09-09T09:02:08;100755.41;;;17.82;100.00
50133;BME280;46340;53.148;8.204;2022-09-09T09:13:03;100766.34;;;17.14;100.00
50133;BME280;46340;53.148;8.204;2022-09-09T09:15:38;100773.19;;;17.31;100.00
50133;BME280;46340;53.148;8.204;2022-09-09T09:18:07;100771.63;;;17.40;100.00
50133;BME280;46340;53.148;8.204;2022-09-09T09:23:35;100771.47;;;18.25;100.00
50133;BME280;46340;53.148;8.204;2022-09-09T09:26:10;100768.69;;;18.53;100.00
50133;BME280;46340;53.148;8.204;2022-09-09T09:28:36;100764.66;;;18.87;100.00
50133;BME280;46340;53.148;8.204;2022-09-09T09:31:03;100764.22;;;19.06;100.00
50133;BME280;46340;53.148;8.204;2022-09-09T09:36:07;100764.16;;;19.28;100.00
50133;BME280;46340;53.148;8.204;2022-09-09T09:38:33;100763.75;;;19.33;100.00
50133;BME280;46340;53.148;8.204;2022-09-09T09:41:00;100757.34;;;19.29;100.00
50133;BME280;46340;53.148;8.204;2022-09-09T09:43:35;100760.09;;;19.43;100.00
50133;BME280;46340;53.148;8.204;2022-09-09T09:46:05;100753.66;;;19.53;100.00
50133;BME280;46340;53.148;8.204;2022-09-09T09:48:45;100756.66;;;19.88;100.00
50133;BME280;46340;53.148;8.204;2022-09-09T09:51:21;100757.72;;;20.08;100.00
50133;BME280;46340;53.148;8.204;2022-09-09T09:53:48;100757.03;;;19.97;100.00
50133;BME280;46340;53.148;8.204;2022-09-09T09:56:14;100761.09;;;19.85;100.00
50133;BME280;46340;53.148;8.204;2022-09-09T10:01:18;100757.09;;;19.86;100.00
50133;BME280;46340;53.148;8.204;2022-09-09T10:03:50;100765.94;;;19.74;100.00
50133;BME280;46340;53.148;8.204;2022-09-09T10:06:16;100761.38;;;20.02;100.00
50133;BME280;46340;53.148;8.204;2022-09-09T10:08:45;100759.13;;;20.38;100.00
50133;BME280;46340;53.148;8.204;2022-09-09T10:11:26;100748.75;;;20.80;100.00
50133;BME280;46340;53.148;8.204;2022-09-09T10:13:56;100755.63;;;21.10;100.00
50133;BME280;46340;53.148;8.204;2022-09-09T10:19:20;100748.16;;;21.65;100.00
50133;BME280;46340;53.148;8.204;2022-09-09T10:27:43;100742.63;;;21.85;100.00
50133;BME280;46340;53.148;8.204;2022-09-09T10:30:34;100744.50;;;21.68;100.00
50133;BME280;46340;53.148;8.204;2022-09-09T10:36:13;100744.16;;;21.28;100.00
50133;BME280;46340;53.148;8.204;2022-09-09T10:38:51;100752.56;;;21.93;100.00
50133;BME280;46340;53.148;8.204;2022-09-09T10:49:57;100758.78;;;22.36;100.00
50133;BME280;46340;53.148;8.204;2022-09-09T10:55:08;100745.66;;;22.25;100.00
50133;BME280;46340;53.148;8.204;2022-09-09T10:57:51;100752.34;;;21.81;100.00
50133;BME280;46340;53.148;8.204;2022-09-09T11:00:20;100754.41;;;22.04;100.00
50133;BME280;46340;53.148;8.204;2022-09-09T11:02:52;100743.97;;;22.75;100.00
50133;BME280;46340;53.148;8.204;2022-09-09T11:05:24;100748.91;;;22.71;100.00
50133;BME280;46340;53.148;8.204;2022-09-09T11:07:59;100746.00;;;24.28;100.00
50133;BME280;46340;53.148;8.204;2022-09-09T11:13:05;100742.53;;;25.96;100.00
50133;BME280;46340;53.148;8.204;2022-09-09T11:15:41;100753.66;;;25.61;100.00
50133;BME280;46340;53.148;8.204;2022-09-09T11:18:13;100762.59;;;25.17;100.00
50133;BME280;46340;53.148;8.204;2022-09-09T11:20:44;100745.50;;;25.08;100.00
50133;BME280;46340;53.148;8.204;2022-09-09T11:23:22;100746.69;;;25.91;100.00
50133;BME280;46340;53.148;8.204;2022-09-09T11:25:54;100750.03;;;26.63;100.00
50133;BME280;46340;53.148;8.204;2022-09-09T11:33:31;100745.88;;;26.29;100.00
50133;BME280;46340;53.148;8.204;2022-09-09T11:39:02;100746.53;;;27.69;100.00
50133;BME280;46340;53.148;8.204;2022-09-09T11:41:40;100749.13;;;26.40;100.00
50133;BME280;46340;53.148;8.204;2022-09-09T11:44:12;100756.66;;;25.28;100.00
50133;BME280;46340;53.148;8.204;2022-09-09T11:46:44;100754.38;;;24.31;100.00
50133;BME280;46340;53.148;8.204;2022-09-09T11:49:25;100749.38;;;23.50;100.00
50133;BME280;46340;53.148;8.204;2022-09-09T11:51:53;100747.06;;;22.61;100.00
50133;BME280;46340;53.148;8.204;2022-09-09T11:54:29;100745.66;;;22.25;100.00
50133;BME280;46340;53.148;8.204;2022-09-09T11:56:57;100751.97;;;22.06;100.00
50133;BME280;46340;53.148;8.204;2022-09-09T11:59:23;100758.59;;;20.54;100.00
50133;BME280;46340;53.148;8.204;2022-09-09T12:02:02;100769.22;;;19.54;100.00
50133;BME280;46340;53.148;8.204;2022-09-09T12:04:37;100779.41;;;18.98;100.00
50133;BME280;46340;53.148;8.204;2022-09-09T12:12:23;100772.00;;;21.15;100.00
50133;BME280;46340;53.148;8.204;2022-09-09T12:15:00;100782.31;;;19.86;100.00
50133;BME280;46340;53.148;8.204;2022-09-09T12:17:36;100786.56;;;19.21;100.00
50133;BME280;46340;53.148;8.204;2022-09-09T12:20:15;100782.75;;;19.81;100.00
50133;BME280;46340;53.148;8.204;2022-09-09T12:27:56;100785.44;;;18.89;100.00
50133;BME280;46340;53.148;8.204;2022-09-09T12:33:17;100788.63;;;18.37;100.00
50133;BME280;46340;53.148;8.204;2022-09-09T12:35:44;100783.44;;;18.32;100.00
50133;BME280;46340;53.148;8.204;2022-09-09T12:38:19;100794.22;;;18.27;100.00
50133;BME280;46340;53.148;8.204;2022-09-09T12:40:55;100791.38;;;17.94;100.00
50133;BME280;46340;53.148;8.204;2022-09-09T12:43:22;100785.34;;;17.81;100.00
50133;BME280;46340;53.148;8.204;2022-09-09T12:45:49;100782.97;;;17.94;100.00
50133;BME280;46340;53.148;8.204;2022-09-09T12:48:22;100782.25;;;18.15;100.00
50133;BME280;46340;53.148;8.204;2022-09-09T12:50:52;100771.84;;;18.16;100.00
50133;BME280;46340;53.148;8.204;2022-09-09T12:55:52;100773.88;;;18.22;100.00
50133;BME280;46340;53.148;8.204;2022-09-09T12:58:21;100768.66;;;18.28;100.00
50133;BME280;46340;53.148;8.204;2022-09-09T13:00:54;100767.09;;;18.45;100.00
50133;BME280;46340;53.148;8.204;2022-09-09T13:03:24;100753.13;;;18.38;100.00
50133;BME280;46340;53.148;8.204;2022-09-09T13:05:50;100751.50;;;18.19;100.00
50133;BME280;46340;53.148;8.204;2022-09-09T13:08:16;100747.91;;;18.18;100.00
50133;BME280;46340;53.148;8.204;2022-09-09T13:10:58;100753.91;;;18.24;100.00
50133;BME280;46340;53.148;8.204;2022-09-09T13:14:12;100750.28;;;18.20;100.00
50133;BME280;46340;53.148;8.204;2022-09-09T13:16:30;100743.91;;;18.30;100.00
50133;BME280;46340;53.148;8.204;2022-09-09T13:19:08;100745.53;;;18.35;100.00
50133;BME280;46340;53.148;8.204;2022-09-09T13:21:39;100740.72;;;18.53;100.00
50133;BME280;46340;53.148;8.204;2022-09-09T13:24:06;100740.31;;;18.69;100.00
50133;BME280;46340;53.148;8.204;2022-09-09T13:26:53;100750.28;;;18.88;100.00
50133;BME280;46340;53.148;8.204;2022-09-09T13:29:21;100750.66;;;18.94;100.00
50133;BME280;46340;53.148;8.204;2022-09-09T13:31:47;100753.81;;;19.03;100.00
50133;BME280;46340;53.148;8.204;2022-09-09T13:34:14;100751.81;;;19.14;100.00
50133;BME280;46340;53.148;8.204;2022-09-09T13:36:55;100752.59;;;19.11;100.00
50133;BME280;46340;53.148;8.204;2022-09-09T13:39:28;100757.00;;;19.12;100.00
50133;BME280;46340;53.148;8.204;2022-09-09T13:41:54;100752.53;;;19.26;100.00
50133;BME280;46340;53.148;8.204;2022-09-09T13:44:24;100754.41;;;19.61;100.00
50133;BME280;46340;53.148;8.204;2022-09-09T13:49:48;100749.16;;;20.30;100.00
50133;BME280;46340;53.148;8.204;2022-09-09T13:52:14;100751.69;;;21.04;100.00
50133;BME280;46340;53.148;8.204;2022-09-09T13:54:47;100752.47;;;21.73;100.00
50133;BME280;46340;53.148;8.204;2022-09-09T13:57:23;100748.47;;;22.25;100.00
50133;BME280;46340;53.148;8.204;2022-09-09T13:59:50;100749.09;;;22.60;100.00
50133;BME280;46340;53.148;8.204;2022-09-09T14:02:17;100748.25;;;22.12;100.00
50133;BME280;46340;53.148;8.204;2022-09-09T14:04:43;100755.03;;;21.60;100.00
50133;BME280;46340;53.148;8.204;2022-09-09T14:07:11;100753.31;;;21.01;100.00
50133;BME280;46340;53.148;8.204;2022-09-09T14:09:40;100754.16;;;20.53;100.00
50133;BME280;46340;53.148;8.204;2022-09-09T14:12:12;100747.91;;;20.38;100.00
50133;BME280;46340;53.148;8.204;2022-09-09T14:14:40;100746.22;;;20.48;100.00
50133;BME280;46340;53.148;8.204;2022-09-09T14:17:06;100730.50;;;20.58;100.00
50133;BME280;46340;53.148;8.204;2022-09-09T14:19:32;100734.88;;;20.66;100.00
50133;BME280;46340;53.148;8.204;2022-09-09T14:21:58;100734.88;;;20.62;100.00
50133;BME280;46340;53.148;8.204;2022-09-09T14:24:23;100732.31;;;20.79;100.00
50133;BME280;46340;53.148;8.204;2022-09-09T14:26:50;100732.59;;;20.88;100.00
50133;BME280;46340;53.148;8.204;2022-09-09T14:29:15;100732.19;;;20.90;100.00
50133;BME280;46340;53.148;8.204;2022-09-09T14:31:40;100732.66;;;20.84;100.00
50133;BME280;46340;53.148;8.204;2022-09-09T14:34:06;100734.59;;;20.91;100.00
50133;BME280;46340;53.148;8.204;2022-09-09T14:36:31;100733.38;;;20.92;100.00
50133;BME280;46340;53.148;8.204;2022-09-09T14:38:56;100727.88;;;20.81;100.00
50133;BME280;46340;53.148;8.204;2022-09-09T14:41:22;100729.13;;;20.77;100.00
50133;BME280;46340;53.148;8.204;2022-09-09T14:43:48;100730.66;;;20.81;100.00
50133;BME280;46340;53.148;8.204;2022-09-09T14:46:15;100730.00;;;20.70;100.00
50133;BME280;46340;53.148;8.204;2022-09-09T14:48:41;100723.19;;;20.67;100.00
50133;BME280;46340;53.148;8.204;2022-09-09T14:51:09;100723.44;;;20.84;100.00
50133;BME280;46340;53.148;8.204;2022-09-09T14:53:37;100715.41;;;20.86;100.00
50133;BME280;46340;53.148;8.204;2022-09-09T14:56:07;100715.72;;;20.92;100.00